createdAt,value
2019-03-22T13:10:20.914Z,32.63
2019-03-22T13:15:24.838Z,32.38
2019-03-22T13:20:28.788Z,33.42
2019-03-22T13:25:32.779Z,32.58
2019-03-22T13:30:37.148Z,33.23
2019-03-22T13:35:41.082Z,33.02
2019-03-22T13:40:45.024Z,34.83
2019-03-22T13:45:49.029Z,31.93
2019-03-22T13:50:53.040Z,31.35
2019-03-22T13:55:57.410Z,28.57
2019-03-22T14:01:01.544Z,31.85
2019-03-22T14:06:06.419Z,30.08
2019-03-22T14:11:12.384Z,28.15
2019-03-22T14:16:17.196Z,28.27
2019-03-22T14:21:22.014Z,28.23
2019-03-22T14:26:26.908Z,28.67
2019-03-22T14:31:31.636Z,31.12
2019-03-22T14:36:36.399Z,28.35
2019-03-22T14:41:41.092Z,29.02
2019-03-22T14:46:45.851Z,24.95
2019-03-22T14:51:50.579Z,26.82
2019-03-22T14:56:55.296Z,27.10
2019-03-22T15:02:00.108Z,26.45
2019-03-22T15:07:04.231Z,28.07
2019-03-22T15:12:08.223Z,28.85
2019-03-22T15:17:24.487Z,29.12
2019-03-22T15:23:07.081Z,28.00
2019-03-22T15:28:29.373Z,28.42
2019-03-22T15:33:57.974Z,29.18
2019-03-22T15:39:27.744Z,27.67
2019-03-22T15:44:31.864Z,36.05
2019-03-22T15:49:37.981Z,31.87
2019-03-22T15:54:42.721Z,31.97
2019-03-22T15:59:47.550Z,32.28
2019-03-22T16:04:51.517Z,36.42
2019-03-22T16:09:56.338Z,34.67
2019-03-22T16:15:01.125Z,37.98
2019-03-22T16:20:07.146Z,39.67
2019-03-22T16:25:12.867Z,39.35
2019-03-22T16:30:19.128Z,41.15
2019-03-22T16:35:23.896Z,40.98
2019-03-22T16:40:28.768Z,42.65
2019-03-22T16:45:38.303Z,40.85
2019-03-22T16:50:43.051Z,45.23
2019-03-22T16:55:47.801Z,42.00
2019-03-22T17:00:52.544Z,43.00
2019-03-22T17:05:57.330Z,43.40
2019-03-22T17:11:02.115Z,47.55
2019-03-22T17:16:06.957Z,53.08
2019-03-22T17:21:11.859Z,50.95
2019-03-22T17:26:16.583Z,52.83
2019-03-22T17:31:21.321Z,59.83
2019-03-22T17:36:26.127Z,57.08
2019-03-22T17:41:30.853Z,58.63
2019-03-22T17:46:35.660Z,58.98
2019-03-22T17:51:40.398Z,63.40
2019-03-22T17:56:45.229Z,59.88
2019-03-22T18:01:50.131Z,62.85
2019-03-22T18:06:54.893Z,66.42
2019-03-22T18:11:59.719Z,65.60
2019-03-22T18:17:04.529Z,63.40
2019-03-22T18:22:09.392Z,63.20
2019-03-22T18:27:14.219Z,62.80
2019-03-22T18:32:18.991Z,64.20
2019-03-22T18:37:23.879Z,63.15
2019-03-22T18:42:28.703Z,62.93
2019-03-22T18:47:33.577Z,59.23
2019-03-22T18:52:38.387Z,59.75
2019-03-22T18:57:43.281Z,58.13
2019-03-22T19:02:48.116Z,57.73
2019-03-22T19:07:52.887Z,55.90
2019-03-22T19:12:57.924Z,56.02
2019-03-22T19:18:02.775Z,55.92
2019-03-22T19:23:07.577Z,55.12
2019-03-22T19:28:12.364Z,54.05
2019-03-22T19:33:17.170Z,53.95
2019-03-22T19:38:21.977Z,55.10
2019-03-22T19:43:26.737Z,58.02
2019-03-22T19:48:31.583Z,61.83
2019-03-22T19:53:36.386Z,54.95
2019-03-22T19:58:41.230Z,58.45
2019-03-22T20:03:46.216Z,57.90
2019-03-22T20:08:51.166Z,54.67
2019-03-22T20:13:55.988Z,58.92
2019-03-22T20:19:00.741Z,57.17
2019-03-22T20:24:05.507Z,56.18
2019-03-22T20:29:10.324Z,53.10
2019-03-22T20:34:15.240Z,53.45
2019-03-22T20:39:19.287Z,53.13
2019-03-22T20:44:33.610Z,55.15
2019-03-22T20:49:30.569Z,62.65
2019-03-22T20:54:35.319Z,66.67
2019-03-22T20:59:40.164Z,61.60
2019-03-22T21:04:44.918Z,60.05
2019-03-22T21:09:49.803Z,57.62
2019-03-22T21:14:54.765Z,61.02
2019-03-22T21:19:59.592Z,61.58
2019-03-22T21:25:04.814Z,56.98
2019-03-22T21:30:09.914Z,60.70
2019-03-22T21:35:22.393Z,60.88
2019-03-22T21:40:21.161Z,59.83
2019-03-22T21:45:25.927Z,57.25
2019-03-22T21:50:30.770Z,59.20
2019-03-22T21:55:35.518Z,57.73
2019-03-22T22:00:40.309Z,55.15
2019-03-22T22:05:48.111Z,54.65
2019-03-22T22:10:59.376Z,47.03
2019-03-22T22:15:58.012Z,48.65
2019-03-22T22:21:02.758Z,43.78
2019-03-22T22:26:07.504Z,44.20
2019-03-22T22:31:12.222Z,48.65
2019-03-22T22:36:17.008Z,40.45
2019-03-22T22:41:21.851Z,38.75
2019-03-22T22:46:26.590Z,45.43
2019-03-22T22:51:31.293Z,39.58
2019-03-22T22:56:36.185Z,40.75
2019-03-22T23:01:40.897Z,40.78
2019-03-22T23:06:45.703Z,41.20
2019-03-22T23:11:50.507Z,39.67
2019-03-22T23:16:55.262Z,43.95
2019-03-22T23:22:00.090Z,41.58
2019-03-22T23:27:05.014Z,42.38
2019-03-22T23:32:09.763Z,41.85
2019-03-22T23:37:14.542Z,42.48
2019-03-22T23:42:19.381Z,40.98
2019-03-22T23:47:24.099Z,44.77
2019-03-22T23:52:28.947Z,42.70
2019-03-22T23:57:33.712Z,41.50
